sensor_id;sensor_type;location;lat;lon;timestamp;temperature;humidity
44705;DHT22;30431;48.520;9.046;2023-06-22T00:01:22;19.90;99.90
44705;DHT22;30431;48.520;9.046;2023-06-22T00:03:52;19.90;99.90
44705;DHT22;30431;48.520;9.046;2023-06-22T00:06:19;19.90;99.90
44705;DHT22;30431;48.520;9.046;2023-06-22T00:08:46;19.90;99.90
44705;DHT22;30431;48.520;9.046;2023-06-22T00:11:13;19.90;99.90
44705;DHT22;30431;48.520;9.046;2023-06-22T00:13:42;19.80;99.90
44705;DHT22;30431;48.520;9.046;2023-06-22T00:16:09;19.80;99.90
44705;DHT22;30431;48.520;9.046;2023-06-22T00:18:36;19.70;99.90
44705;DHT22;30431;48.520;9.046;2023-06-22T00:21:05;19.70;99.90
44705;DHT22;30431;48.520;9.046;2023-06-22T00:23:33;19.70;99.90
44705;DHT22;30431;48.520;9.046;2023-06-22T00:26:02;19.70;99.90
44705;DHT22;30431;48.520;9.046;2023-06-22T00:28:29;19.70;99.90
44705;DHT22;30431;48.520;9.046;2023-06-22T00:30:59;19.60;99.90
44705;DHT22;30431;48.520;9.046;2023-06-22T00:33:27;19.50;99.90
44705;DHT22;30431;48.520;9.046;2023-06-22T00:35:59;19.50;99.90
44705;DHT22;30431;48.520;9.046;2023-06-22T00:38:26;19.50;99.90
44705;DHT22;30431;48.520;9.046;2023-06-22T00:40:55;19.50;99.90
44705;DHT22;30431;48.520;9.046;2023-06-22T00:43:22;19.50;99.90
44705;DHT22;30431;48.520;9.046;2023-06-22T00:45:54;19.50;99.90
44705;DHT22;30431;48.520;9.046;2023-06-22T00:48:23;19.50;99.90
44705;DHT22;30431;48.520;9.046;2023-06-22T00:50:50;19.40;99.90
44705;DHT22;30431;48.520;9.046;2023-06-22T00:53:18;19.40;99.90
44705;DHT22;30431;48.520;9.046;2023-06-22T00:55:49;19.40;99.90
44705;DHT22;30431;48.520;9.046;2023-06-22T00:58:22;19.30;99.90
44705;DHT22;30431;48.520;9.046;2023-06-22T01:00:51;19.30;99.90
44705;DHT22;30431;48.520;9.046;2023-06-22T01:03:18;19.30;99.90
44705;DHT22;30431;48.520;9.046;2023-06-22T01:05:48;19.20;99.90
44705;DHT22;30431;48.520;9.046;2023-06-22T01:11:12;19.00;99.90
44705;DHT22;30431;48.520;9.046;2023-06-22T01:16:24;18.90;99.90
44705;DHT22;30431;48.520;9.046;2023-06-22T01:18:54;18.80;99.90
44705;DHT22;30431;48.520;9.046;2023-06-22T01:21:28;18.70;99.90
44705;DHT22;30431;48.520;9.046;2023-06-22T01:24:23;18.60;99.90
44705;DHT22;30431;48.520;9.046;2023-06-22T01:27:25;18.60;99.90
44705;DHT22;30431;48.520;9.046;2023-06-22T01:29:57;18.70;99.90
44705;DHT22;30431;48.520;9.046;2023-06-22T01:32:30;18.70;99.90
44705;DHT22;30431;48.520;9.046;2023-06-22T01:35:01;18.60;99.90
44705;DHT22;30431;48.520;9.046;2023-06-22T01:37:34;18.60;99.90
44705;DHT22;30431;48.520;9.046;2023-06-22T01:40:10;18.50;99.90
44705;DHT22;30431;48.520;9.046;2023-06-22T01:42:38;18.50;99.90
44705;DHT22;30431;48.520;9.046;2023-06-22T01:45:07;18.50;99.90
44705;DHT22;30431;48.520;9.046;2023-06-22T01:47:34;18.40;99.90
44705;DHT22;30431;48.520;9.046;2023-06-22T01:50:04;18.40;99.90
44705;DHT22;30431;48.520;9.046;2023-06-22T01:52:32;18.40;99.90
44705;DHT22;30431;48.520;9.046;2023-06-22T01:55:01;18.40;99.90
44705;DHT22;30431;48.520;9.046;2023-06-22T01:57:28;18.40;99.90
44705;DHT22;30431;48.520;9.046;2023-06-22T02:02:33;18.40;99.90
44705;DHT22;30431;48.520;9.046;2023-06-22T02:05:06;18.50;99.90
44705;DHT22;30431;48.520;9.046;2023-06-22T02:07:41;18.40;99.90
44705;DHT22;30431;48.520;9.046;2023-06-22T02:10:09;18.30;99.90
44705;DHT22;30431;48.520;9.046;2023-06-22T02:12:39;18.30;99.90
44705;DHT22;30431;48.520;9.046;2023-06-22T02:15:09;18.30;99.90
44705;DHT22;30431;48.520;9.046;2023-06-22T02:17:37;18.30;99.90
44705;DHT22;30431;48.520;9.046;2023-06-22T02:20:04;18.30;99.90
44705;DHT22;30431;48.520;9.046;2023-06-22T02:22:35;18.30;99.90
44705;DHT22;30431;48.520;9.046;2023-06-22T02:25:05;18.30;99.90
44705;DHT22;30431;48.520;9.046;2023-06-22T02:27:32;18.30;99.90
44705;DHT22;30431;48.520;9.046;2023-06-22T02:29:59;18.30;99.90
44705;DHT22;30431;48.520;9.046;2023-06-22T02:32:26;18.30;99.90
44705;DHT22;30431;48.520;9.046;2023-06-22T02:34:55;18.20;99.90
44705;DHT22;30431;48.520;9.046;2023-06-22T02:37:24;18.30;99.90
44705;DHT22;30431;48.520;9.046;2023-06-22T02:39:56;18.20;99.90
44705;DHT22;30431;48.520;9.046;2023-06-22T02:42:23;18.20;99.90
44705;DHT22;30431;48.520;9.046;2023-06-22T02:44:52;18.20;99.90
44705;DHT22;30431;48.520;9.046;2023-06-22T02:47:21;18.20;99.90
44705;DHT22;30431;48.520;9.046;2023-06-22T02:49:49;18.10;99.90
44705;DHT22;30431;48.520;9.046;2023-06-22T02:52:19;18.10;99.90
44705;DHT22;30431;48.520;9.046;2023-06-22T02:54:48;18.20;99.90
44705;DHT22;30431;48.520;9.046;2023-06-22T02:57:15;18.10;99.90
44705;DHT22;30431;48.520;9.046;2023-06-22T02:59:43;18.10;99.90
44705;DHT22;30431;48.520;9.046;2023-06-22T03:02:15;18.10;99.90
44705;DHT22;30431;48.520;9.046;2023-06-22T03:04:42;18.10;99.90
44705;DHT22;30431;48.520;9.046;2023-06-22T03:07:10;18.00;99.90
44705;DHT22;30431;48.520;9.046;2023-06-22T03:09:37;18.00;99.90
44705;DHT22;30431;48.520;9.046;2023-06-22T03:12:07;18.00;99.90
44705;DHT22;30431;48.520;9.046;2023-06-22T03:14:45;17.90;99.90
44705;DHT22;30431;48.520;9.046;2023-06-22T03:17:14;17.90;99.90
44705;DHT22;30431;48.520;9.046;2023-06-22T03:19:42;17.90;99.90
44705;DHT22;30431;48.520;9.046;2023-06-22T03:22:11;17.90;99.90
44705;DHT22;30431;48.520;9.046;2023-06-22T03:24:42;17.90;99.90
44705;DHT22;30431;48.520;9.046;2023-06-22T03:27:12;17.90;99.90
44705;DHT22;30431;48.520;9.046;2023-06-22T03:29:40;17.80;99.90
44705;DHT22;30431;48.520;9.046;2023-06-22T03:32:07;17.80;99.90
44705;DHT22;30431;48.520;9.046;2023-06-22T03:34:36;17.90;99.90
44705;DHT22;30431;48.520;9.046;2023-06-22T03:37:03;17.80;99.90
44705;DHT22;30431;48.520;9.046;2023-06-22T03:39:31;17.80;99.90
44705;DHT22;30431;48.520;9.046;2023-06-22T03:41:59;17.70;99.90
44705;DHT22;30431;48.520;9.046;2023-06-22T03:44:26;17.80;99.90
44705;DHT22;30431;48.520;9.046;2023-06-22T03:46:53;17.70;99.90
44705;DHT22;30431;48.520;9.046;2023-06-22T03:49:21;17.80;99.90
44705;DHT22;30431;48.520;9.046;2023-06-22T03:51:48;17.70;99.90
44705;DHT22;30431;48.520;9.046;2023-06-22T03:54:15;17.80;99.90
44705;DHT22;30431;48.520;9.046;2023-06-22T03:56:42;17.80;99.90
44705;DHT22;30431;48.520;9.046;2023-06-22T03:59:09;17.80;99.90
44705;DHT22;30431;48.520;9.046;2023-06-22T04:01:41;17.80;99.90
44705;DHT22;30431;48.520;9.046;2023-06-22T04:04:11;17.90;99.90
44705;DHT22;30431;48.520;9.046;2023-06-22T04:06:38;17.90;99.90
44705;DHT22;30431;48.520;9.046;2023-06-22T04:09:08;18.00;99.90
44705;DHT22;30431;48.520;9.046;2023-06-22T04:11:35;18.00;99.90
44705;DHT22;30431;48.520;9.046;2023-06-22T04:14:02;18.10;99.90
44705;DHT22;30431;48.520;9.046;2023-06-22T04:16:31;18.20;99.90
44705;DHT22;30431;48.520;9.046;2023-06-22T04:19:03;18.20;99.90
44705;DHT22;30431;48.520;9.046;2023-06-22T04:21:33;18.20;99.90
44705;DHT22;30431;48.520;9.046;2023-06-22T04:24:00;18.30;99.90
44705;DHT22;30431;48.520;9.046;2023-06-22T04:26:27;18.40;99.90
44705;DHT22;30431;48.520;9.046;2023-06-22T04:28:56;18.30;99.90
44705;DHT22;30431;48.520;9.046;2023-06-22T04:31:23;18.50;99.90
44705;DHT22;30431;48.520;9.046;2023-06-22T04:34:00;18.80;99.90
44705;DHT22;30431;48.520;9.046;2023-06-22T04:36:37;19.30;99.90
44705;DHT22;30431;48.520;9.046;2023-06-22T04:39:11;19.70;99.90
44705;DHT22;30431;48.520;9.046;2023-06-22T04:41:41;20.10;99.90
44705;DHT22;30431;48.520;9.046;2023-06-22T04:46:37;20.40;99.90
44705;DHT22;30431;48.520;9.046;2023-06-22T04:49:09;20.40;99.90
44705;DHT22;30431;48.520;9.046;2023-06-22T04:51:41;20.50;99.90
44705;DHT22;30431;48.520;9.046;2023-06-22T04:54:09;20.80;99.90
44705;DHT22;30431;48.520;9.046;2023-06-22T04:56:36;21.20;99.90
44705;DHT22;30431;48.520;9.046;2023-06-22T04:59:03;21.20;99.90
44705;DHT22;30431;48.520;9.046;2023-06-22T05:01:36;21.50;99.90
44705;DHT22;30431;48.520;9.046;2023-06-22T05:04:05;21.70;99.90
44705;DHT22;30431;48.520;9.046;2023-06-22T05:06:38;21.90;99.90
44705;DHT22;30431;48.520;9.046;2023-06-22T05:09:07;21.70;99.90
44705;DHT22;30431;48.520;9.046;2023-06-22T05:11:37;21.60;99.90
44705;DHT22;30431;48.520;9.046;2023-06-22T05:14:04;21.60;99.90
44705;DHT22;30431;48.520;9.046;2023-06-22T05:16:31;21.70;99.90
44705;DHT22;30431;48.520;9.046;2023-06-22T05:18:58;22.00;99.90
44705;DHT22;30431;48.520;9.046;2023-06-22T05:21:26;22.40;99.90
44705;DHT22;30431;48.520;9.046;2023-06-22T05:23:56;22.20;99.90
44705;DHT22;30431;48.520;9.046;2023-06-22T05:26:30;22.50;99.90
44705;DHT22;30431;48.520;9.046;2023-06-22T05:28:58;22.80;99.90
44705;DHT22;30431;48.520;9.046;2023-06-22T05:31:52;23.20;99.90
44705;DHT22;30431;48.520;9.046;2023-06-22T05:34:19;23.20;99.90
44705;DHT22;30431;48.520;9.046;2023-06-22T05:36:48;23.30;99.90
44705;DHT22;30431;48.520;9.046;2023-06-22T05:39:17;23.40;99.90
44705;DHT22;30431;48.520;9.046;2023-06-22T05:41:45;23.40;99.90
44705;DHT22;30431;48.520;9.046;2023-06-22T05:44:12;23.20;99.90
44705;DHT22;30431;48.520;9.046;2023-06-22T05:46:42;23.00;99.90
44705;DHT22;30431;48.520;9.046;2023-06-22T05:49:15;22.40;99.90
44705;DHT22;30431;48.520;9.046;2023-06-22T05:51:43;22.40;99.90
44705;DHT22;30431;48.520;9.046;2023-06-22T05:54:12;22.40;99.90
44705;DHT22;30431;48.520;9.046;2023-06-22T05:56:40;22.20;99.90
44705;DHT22;30431;48.520;9.046;2023-06-22T05:59:09;22.20;99.90
44705;DHT22;30431;48.520;9.046;2023-06-22T06:01:36;22.30;99.90
44705;DHT22;30431;48.520;9.046;2023-06-22T06:04:04;22.20;99.90
44705;DHT22;30431;48.520;9.046;2023-06-22T06:06:31;22.30;99.90
44705;DHT22;30431;48.520;9.046;2023-06-22T06:08:58;22.40;99.90
44705;DHT22;30431;48.520;9.046;2023-06-22T06:11:26;22.50;99.90
44705;DHT22;30431;48.520;9.046;2023-06-22T06:13:56;22.60;99.90
44705;DHT22;30431;48.520;9.046;2023-06-22T06:16:23;22.50;99.90
44705;DHT22;30431;48.520;9.046;2023-06-22T06:18:50;22.50;99.90
44705;DHT22;30431;48.520;9.046;2023-06-22T06:21:17;22.70;99.90
44705;DHT22;30431;48.520;9.046;2023-06-22T06:23:44;22.90;99.90
44705;DHT22;30431;48.520;9.046;2023-06-22T06:26:11;23.00;99.90
44705;DHT22;30431;48.520;9.046;2023-06-22T06:28:41;23.20;99.90
44705;DHT22;30431;48.520;9.046;2023-06-22T06:31:12;23.30;99.90
44705;DHT22;30431;48.520;9.046;2023-06-22T06:33:44;23.40;99.90
44705;DHT22;30431;48.520;9.046;2023-06-22T06:36:13;23.50;99.90
44705;DHT22;30431;48.520;9.046;2023-06-22T06:38:40;23.40;99.90
44705;DHT22;30431;48.520;9.046;2023-06-22T06:41:09;23.40;99.90
44705;DHT22;30431;48.520;9.046;2023-06-22T06:43:36;23.60;99.90
44705;DHT22;30431;48.520;9.046;2023-06-22T06:46:05;23.80;99.90
44705;DHT22;30431;48.520;9.046;2023-06-22T06:48:32;24.00;99.90
44705;DHT22;30431;48.520;9.046;2023-06-22T06:50:59;24.10;99.90
44705;DHT22;30431;48.520;9.046;2023-06-22T06:53:29;24.20;99.90
44705;DHT22;30431;48.520;9.046;2023-06-22T06:55:56;24.30;99.90
44705;DHT22;30431;48.520;9.046;2023-06-22T06:58:23;24.40;99.90
44705;DHT22;30431;48.520;9.046;2023-06-22T07:00:50;24.40;99.90
44705;DHT22;30431;48.520;9.046;2023-06-22T07:03:20;24.50;99.90
44705;DHT22;30431;48.520;9.046;2023-06-22T07:05:47;24.50;99.90
44705;DHT22;30431;48.520;9.046;2023-06-22T07:08:14;24.60;99.90
44705;DHT22;30431;48.520;9.046;2023-06-22T07:10:41;24.60;99.90
44705;DHT22;30431;48.520;9.046;2023-06-22T07:13:10;24.50;99.90
44705;DHT22;30431;48.520;9.046;2023-06-22T07:15:37;24.60;99.90
44705;DHT22;30431;48.520;9.046;2023-06-22T07:18:04;24.80;99.90
44705;DHT22;30431;48.520;9.046;2023-06-22T07:20:31;24.90;99.90
44705;DHT22;30431;48.520;9.046;2023-06-22T07:23:01;25.00;99.90
44705;DHT22;30431;48.520;9.046;2023-06-22T07:25:28;25.20;99.90
44705;DHT22;30431;48.520;9.046;2023-06-22T07:28:03;25.30;99.90
44705;DHT22;30431;48.520;9.046;2023-06-22T07:30:32;25.40;99.90
44705;DHT22;30431;48.520;9.046;2023-06-22T07:33:00;25.50;99.50
44705;DHT22;30431;48.520;9.046;2023-06-22T07:35:31;25.50;99.40
44705;DHT22;30431;48.520;9.046;2023-06-22T07:38:05;25.60;99.30
44705;DHT22;30431;48.520;9.046;2023-06-22T07:40:33;25.70;99.70
44705;DHT22;30431;48.520;9.046;2023-06-22T07:43:01;25.70;98.90
44705;DHT22;30431;48.520;9.046;2023-06-22T07:45:32;25.80;98.00
44705;DHT22;30431;48.520;9.046;2023-06-22T07:48:02;25.90;98.30
44705;DHT22;30431;48.520;9.046;2023-06-22T07:50:29;26.00;97.10
44705;DHT22;30431;48.520;9.046;2023-06-22T07:52:56;26.00;97.40
44705;DHT22;30431;48.520;9.046;2023-06-22T07:55:23;26.00;97.00
44705;DHT22;30431;48.520;9.046;2023-06-22T07:57:50;26.10;96.50
44705;DHT22;30431;48.520;9.046;2023-06-22T08:00:19;26.20;96.10
44705;DHT22;30431;48.520;9.046;2023-06-22T08:02:47;26.00;96.30
44705;DHT22;30431;48.520;9.046;2023-06-22T08:05:14;26.30;96.10
44705;DHT22;30431;48.520;9.046;2023-06-22T08:08:02;26.70;95.50
44705;DHT22;30431;48.520;9.046;2023-06-22T08:10:31;26.70;94.60
44705;DHT22;30431;48.520;9.046;2023-06-22T08:13:01;26.70;94.70
44705;DHT22;30431;48.520;9.046;2023-06-22T08:15:28;26.70;94.30
44705;DHT22;30431;48.520;9.046;2023-06-22T08:17:55;27.00;94.10
44705;DHT22;30431;48.520;9.046;2023-06-22T08:20:26;27.00;94.10
44705;DHT22;30431;48.520;9.046;2023-06-22T08:22:56;27.10;93.60
44705;DHT22;30431;48.520;9.046;2023-06-22T08:25:28;27.40;93.20
44705;DHT22;30431;48.520;9.046;2023-06-22T08:27:56;27.80;93.00
44705;DHT22;30431;48.520;9.046;2023-06-22T08:30:22;27.90;92.70
44705;DHT22;30431;48.520;9.046;2023-06-22T08:32:50;27.80;92.40
44705;DHT22;30431;48.520;9.046;2023-06-22T08:35:17;27.60;92.10
44705;DHT22;30431;48.520;9.046;2023-06-22T08:37:46;28.30;92.30
44705;DHT22;30431;48.520;9.046;2023-06-22T08:40:21;28.80;90.90
44705;DHT22;30431;48.520;9.046;2023-06-22T08:42:51;29.40;88.70
44705;DHT22;30431;48.520;9.046;2023-06-22T08:45:23;29.30;88.20
44705;DHT22;30431;48.520;9.046;2023-06-22T08:47:50;29.50;88.60
44705;DHT22;30431;48.520;9.046;2023-06-22T08:50:22;29.90;86.40
44705;DHT22;30431;48.520;9.046;2023-06-22T08:52:49;30.10;84.80
44705;DHT22;30431;48.520;9.046;2023-06-22T08:55:16;30.10;85.10
44705;DHT22;30431;48.520;9.046;2023-06-22T08:57:43;29.70;84.00
44705;DHT22;30431;48.520;9.046;2023-06-22T09:00:11;29.50;84.60
44705;DHT22;30431;48.520;9.046;2023-06-22T09:02:45;29.40;86.10
44705;DHT22;30431;48.520;9.046;2023-06-22T09:05:17;28.80;87.00
44705;DHT22;30431;48.520;9.046;2023-06-22T09:07:45;28.50;87.80
44705;DHT22;30431;48.520;9.046;2023-06-22T09:10:13;28.20;88.70
44705;DHT22;30431;48.520;9.046;2023-06-22T09:12:40;28.20;89.80
44705;DHT22;30431;48.520;9.046;2023-06-22T09:15:09;28.10;89.50
44705;DHT22;30431;48.520;9.046;2023-06-22T09:17:43;27.90;89.40
44705;DHT22;30431;48.520;9.046;2023-06-22T09:20:10;27.80;90.20
44705;DHT22;30431;48.520;9.046;2023-06-22T09:22:39;27.60;90.60
44705;DHT22;30431;48.520;9.046;2023-06-22T09:25:07;27.60;90.60
44705;DHT22;30431;48.520;9.046;2023-06-22T09:27:36;27.40;90.40
44705;DHT22;30431;48.520;9.046;2023-06-22T09:30:09;27.20;90.90
44705;DHT22;30431;48.520;9.046;2023-06-22T09:32:36;27.30;91.10
44705;DHT22;30431;48.520;9.046;2023-06-22T09:35:04;27.30;91.00
44705;DHT22;30431;48.520;9.046;2023-06-22T09:37:38;27.40;91.10
44705;DHT22;30431;48.520;9.046;2023-06-22T09:40:10;27.90;91.50
44705;DHT22;30431;48.520;9.046;2023-06-22T09:42:42;28.20;89.40
44705;DHT22;30431;48.520;9.046;2023-06-22T09:45:09;28.10;89.40
44705;DHT22;30431;48.520;9.046;2023-06-22T09:47:37;28.40;89.80
44705;DHT22;30431;48.520;9.046;2023-06-22T09:50:05;28.70;88.80
44705;DHT22;30431;48.520;9.046;2023-06-22T09:52:32;28.90;87.90
44705;DHT22;30431;48.520;9.046;2023-06-22T09:55:14;29.20;86.60
44705;DHT22;30431;48.520;9.046;2023-06-22T09:57:43;29.60;86.30
44705;DHT22;30431;48.520;9.046;2023-06-22T10:00:12;30.20;84.90
44705;DHT22;30431;48.520;9.046;2023-06-22T10:02:42;30.70;81.10
44705;DHT22;30431;48.520;9.046;2023-06-22T10:05:14;31.10;80.20
44705;DHT22;30431;48.520;9.046;2023-06-22T10:07:44;31.50;78.50
44705;DHT22;30431;48.520;9.046;2023-06-22T10:10:12;31.60;77.00
44705;DHT22;30431;48.520;9.046;2023-06-22T10:12:46;31.80;76.40
44705;DHT22;30431;48.520;9.046;2023-06-22T10:15:14;31.90;75.30
44705;DHT22;30431;48.520;9.046;2023-06-22T10:17:47;31.70;75.50
44705;DHT22;30431;48.520;9.046;2023-06-22T10:20:14;31.70;74.20
44705;DHT22;30431;48.520;9.046;2023-06-22T10:22:45;31.80;73.20
44705;DHT22;30431;48.520;9.046;2023-06-22T10:25:17;31.60;72.20
44705;DHT22;30431;48.520;9.046;2023-06-22T10:27:44;31.50;71.50
44705;DHT22;30431;48.520;9.046;2023-06-22T10:30:14;31.80;71.20
44705;DHT22;30431;48.520;9.046;2023-06-22T10:32:44;31.90;72.30
44705;DHT22;30431;48.520;9.046;2023-06-22T10:35:12;32.20;71.70
44705;DHT22;30431;48.520;9.046;2023-06-22T10:37:41;31.90;71.40
44705;DHT22;30431;48.520;9.046;2023-06-22T10:40:13;32.00;70.30
44705;DHT22;30431;48.520;9.046;2023-06-22T10:42:42;32.50;69.90
44705;DHT22;30431;48.520;9.046;2023-06-22T10:45:09;33.00;68.90
44705;DHT22;30431;48.520;9.046;2023-06-22T10:47:36;33.20;66.90
44705;DHT22;30431;48.520;9.046;2023-06-22T10:50:04;33.20;67.20
44705;DHT22;30431;48.520;9.046;2023-06-22T10:52:32;33.20;66.90
44705;DHT22;30431;48.520;9.046;2023-06-22T10:54:59;33.30;69.00
44705;DHT22;30431;48.520;9.046;2023-06-22T10:57:28;33.60;67.60
44705;DHT22;30431;48.520;9.046;2023-06-22T10:59:55;33.50;65.50
44705;DHT22;30431;48.520;9.046;2023-06-22T11:02:24;33.50;65.10
44705;DHT22;30431;48.520;9.046;2023-06-22T11:04:51;33.50;64.50
44705;DHT22;30431;48.520;9.046;2023-06-22T11:07:18;33.50;64.50
44705;DHT22;30431;48.520;9.046;2023-06-22T11:09:46;33.50;65.00
44705;DHT22;30431;48.520;9.046;2023-06-22T11:12:13;33.30;65.80
44705;DHT22;30431;48.520;9.046;2023-06-22T11:14:44;33.10;66.70
44705;DHT22;30431;48.520;9.046;2023-06-22T11:17:12;32.70;66.90
44705;DHT22;30431;48.520;9.046;2023-06-22T11:19:39;33.10;68.50
44705;DHT22;30431;48.520;9.046;2023-06-22T11:22:06;33.50;68.30
44705;DHT22;30431;48.520;9.046;2023-06-22T11:24:33;34.10;65.60
44705;DHT22;30431;48.520;9.046;2023-06-22T11:27:00;34.10;64.40
44705;DHT22;30431;48.520;9.046;2023-06-22T11:29:27;33.90;63.30
44705;DHT22;30431;48.520;9.046;2023-06-22T11:32:05;33.30;64.40
44705;DHT22;30431;48.520;9.046;2023-06-22T11:34:34;33.20;64.90
44705;DHT22;30431;48.520;9.046;2023-06-22T11:37:01;33.00;64.40
44705;DHT22;30431;48.520;9.046;2023-06-22T11:39:28;32.80;66.00
44705;DHT22;30431;48.520;9.046;2023-06-22T11:42:11;32.70;66.10
44705;DHT22;30431;48.520;9.046;2023-06-22T11:44:43;32.80;66.40
44705;DHT22;30431;48.520;9.046;2023-06-22T11:47:12;33.10;64.80
44705;DHT22;30431;48.520;9.046;2023-06-22T11:49:39;33.00;65.80
44705;DHT22;30431;48.520;9.046;2023-06-22T11:52:08;32.50;65.90
44705;DHT22;30431;48.520;9.046;2023-06-22T11:54:35;32.60;66.30
44705;DHT22;30431;48.520;9.046;2023-06-22T11:57:02;32.70;65.60
44705;DHT22;30431;48.520;9.046;2023-06-22T11:59:29;32.50;65.50
44705;DHT22;30431;48.520;9.046;2023-06-22T12:01:57;32.50;65.50
44705;DHT22;30431;48.520;9.046;2023-06-22T12:04:30;32.20;66.20
44705;DHT22;30431;48.520;9.046;2023-06-22T12:06:57;32.00;66.90
44705;DHT22;30431;48.520;9.046;2023-06-22T12:09:25;31.70;67.00
44705;DHT22;30431;48.520;9.046;2023-06-22T12:11:52;31.70;67.90
44705;DHT22;30431;48.520;9.046;2023-06-22T12:14:24;31.60;68.00
44705;DHT22;30431;48.520;9.046;2023-06-22T12:16:55;31.50;69.00
44705;DHT22;30431;48.520;9.046;2023-06-22T12:19:23;31.40;68.40
44705;DHT22;30431;48.520;9.046;2023-06-22T12:21:52;31.20;69.60
44705;DHT22;30431;48.520;9.046;2023-06-22T12:24:21;31.10;69.80
44705;DHT22;30431;48.520;9.046;2023-06-22T12:26:51;31.00;70.70
44705;DHT22;30431;48.520;9.046;2023-06-22T12:29:22;30.90;70.70
44705;DHT22;30431;48.520;9.046;2023-06-22T12:31:49;30.90;71.00
44705;DHT22;30431;48.520;9.046;2023-06-22T12:34:18;31.00;71.20
44705;DHT22;30431;48.520;9.046;2023-06-22T12:36:48;30.90;71.90
44705;DHT22;30431;48.520;9.046;2023-06-22T12:39:15;31.00;72.80
44705;DHT22;30431;48.520;9.046;2023-06-22T12:41:44;30.80;71.60
44705;DHT22;30431;48.520;9.046;2023-06-22T12:44:14;30.80;72.10
44705;DHT22;30431;48.520;9.046;2023-06-22T12:46:43;30.80;73.10
44705;DHT22;30431;48.520;9.046;2023-06-22T12:49:11;31.00;72.70
44705;DHT22;30431;48.520;9.046;2023-06-22T12:51:40;31.30;71.20
44705;DHT22;30431;48.520;9.046;2023-06-22T12:54:09;31.30;72.00
44705;DHT22;30431;48.520;9.046;2023-06-22T12:56:37;31.10;69.70
44705;DHT22;30431;48.520;9.046;2023-06-22T12:59:04;30.80;70.40
44705;DHT22;30431;48.520;9.046;2023-06-22T13:01:33;31.00;70.70
44705;DHT22;30431;48.520;9.046;2023-06-22T13:04:01;31.10;70.70
44705;DHT22;30431;48.520;9.046;2023-06-22T13:06:33;31.10;70.40
44705;DHT22;30431;48.520;9.046;2023-06-22T13:09:01;31.10;70.10
44705;DHT22;30431;48.520;9.046;2023-06-22T13:11:31;31.50;69.40
44705;DHT22;30431;48.520;9.046;2023-06-22T13:13:57;31.80;68.60
44705;DHT22;30431;48.520;9.046;2023-06-22T13:16:25;32.30;68.40
44705;DHT22;30431;48.520;9.046;2023-06-22T13:18:52;32.50;66.90
44705;DHT22;30431;48.520;9.046;2023-06-22T13:21:19;32.40;67.90
44705;DHT22;30431;48.520;9.046;2023-06-22T13:23:47;32.50;66.80
44705;DHT22;30431;48.520;9.046;2023-06-22T13:26:17;32.90;67.40
44705;DHT22;30431;48.520;9.046;2023-06-22T13:28:44;33.20;64.60
44705;DHT22;30431;48.520;9.046;2023-06-22T13:31:11;33.60;63.40
44705;DHT22;30431;48.520;9.046;2023-06-22T13:33:41;33.30;61.80
44705;DHT22;30431;48.520;9.046;2023-06-22T13:36:08;33.00;63.00
44705;DHT22;30431;48.520;9.046;2023-06-22T13:38:35;32.70;64.50
44705;DHT22;30431;48.520;9.046;2023-06-22T13:41:05;32.70;65.40
44705;DHT22;30431;48.520;9.046;2023-06-22T13:43:34;32.90;64.60
44705;DHT22;30431;48.520;9.046;2023-06-22T13:46:01;33.10;65.50
44705;DHT22;30431;48.520;9.046;2023-06-22T13:48:28;32.90;64.60
44705;DHT22;30431;48.520;9.046;2023-06-22T13:50:55;33.00;65.00
44705;DHT22;30431;48.520;9.046;2023-06-22T13:53:29;33.10;65.40
44705;DHT22;30431;48.520;9.046;2023-06-22T13:55:56;33.00;65.40
44705;DHT22;30431;48.520;9.046;2023-06-22T13:58:24;33.20;65.90
44705;DHT22;30431;48.520;9.046;2023-06-22T14:00:53;33.40;65.90
44705;DHT22;30431;48.520;9.046;2023-06-22T14:03:23;33.30;65.60
44705;DHT22;30431;48.520;9.046;2023-06-22T14:05:55;33.10;65.80
44705;DHT22;30431;48.520;9.046;2023-06-22T14:08:24;32.80;65.80
44705;DHT22;30431;48.520;9.046;2023-06-22T14:11:10;32.80;65.80
44705;DHT22;30431;48.520;9.046;2023-06-22T14:13:36;32.70;66.20
44705;DHT22;30431;48.520;9.046;2023-06-22T14:16:08;32.80;66.70
44705;DHT22;30431;48.520;9.046;2023-06-22T14:18:40;33.10;66.40
44705;DHT22;30431;48.520;9.046;2023-06-22T14:21:11;33.30;65.10
44705;DHT22;30431;48.520;9.046;2023-06-22T14:23:40;33.60;64.50
44705;DHT22;30431;48.520;9.046;2023-06-22T14:26:07;33.60;65.40
44705;DHT22;30431;48.520;9.046;2023-06-22T14:28:37;33.50;65.00
44705;DHT22;30431;48.520;9.046;2023-06-22T14:31:04;33.40;65.70
44705;DHT22;30431;48.520;9.046;2023-06-22T14:33:33;33.20;67.10
44705;DHT22;30431;48.520;9.046;2023-06-22T14:36:00;33.50;66.20
44705;DHT22;30431;48.520;9.046;2023-06-22T14:38:30;33.50;65.90
44705;DHT22;30431;48.520;9.046;2023-06-22T14:40:57;33.70;66.00
44705;DHT22;30431;48.520;9.046;2023-06-22T14:43:43;33.90;65.60
44705;DHT22;30431;48.520;9.046;2023-06-22T14:46:17;33.90;66.00
44705;DHT22;30431;48.520;9.046;2023-06-22T14:48:44;33.80;64.80
44705;DHT22;30431;48.520;9.046;2023-06-22T14:51:12;33.60;61.70
44705;DHT22;30431;48.520;9.046;2023-06-22T14:53:46;33.30;54.10
44705;DHT22;30431;48.520;9.046;2023-06-22T14:56:13;33.20;52.50
44705;DHT22;30431;48.520;9.046;2023-06-22T14:58:43;33.10;51.00
44705;DHT22;30431;48.520;9.046;2023-06-22T15:01:14;33.10;51.30
44705;DHT22;30431;48.520;9.046;2023-06-22T15:03:41;32.70;48.80
44705;DHT22;30431;48.520;9.046;2023-06-22T15:06:09;32.50;49.60
44705;DHT22;30431;48.520;9.046;2023-06-22T15:08:40;32.30;48.80
44705;DHT22;30431;48.520;9.046;2023-06-22T15:11:07;32.30;47.80
44705;DHT22;30431;48.520;9.046;2023-06-22T15:13:35;32.40;47.80
44705;DHT22;30431;48.520;9.046;2023-06-22T15:16:05;32.10;47.60
44705;DHT22;30431;48.520;9.046;2023-06-22T15:18:33;32.00;47.50
44705;DHT22;30431;48.520;9.046;2023-06-22T15:21:04;31.90;47.90
44705;DHT22;30431;48.520;9.046;2023-06-22T15:23:34;31.80;48.10
44705;DHT22;30431;48.520;9.046;2023-06-22T15:26:03;31.90;48.90
44705;DHT22;30431;48.520;9.046;2023-06-22T15:28:32;31.90;45.70
44705;DHT22;30431;48.520;9.046;2023-06-22T15:31:04;31.70;45.60
44705;DHT22;30431;48.520;9.046;2023-06-22T15:33:32;31.50;45.00
44705;DHT22;30431;48.520;9.046;2023-06-22T15:35:59;31.80;45.50
44705;DHT22;30431;48.520;9.046;2023-06-22T15:38:32;31.90;45.20
44705;DHT22;30431;48.520;9.046;2023-06-22T15:40:59;31.90;44.60
44705;DHT22;30431;48.520;9.046;2023-06-22T15:43:30;31.60;45.30
44705;DHT22;30431;48.520;9.046;2023-06-22T15:45:57;31.40;46.00
44705;DHT22;30431;48.520;9.046;2023-06-22T15:48:29;31.20;47.00
44705;DHT22;30431;48.520;9.046;2023-06-22T15:50:57;31.10;47.00
44705;DHT22;30431;48.520;9.046;2023-06-22T15:53:26;30.80;48.10